createdAt,value
2022-11-11T00:02:23.632Z,91
2022-11-11T00:12:27.234Z,91
2022-11-11T00:22:23.626Z,91
2022-11-11T00:32:23.861Z,91
2022-11-11T00:42:23.620Z,91
2022-11-11T00:52:23.598Z,91
2022-11-11T01:02:23.612Z,91
2022-11-11T01:12:23.609Z,91
2022-11-11T01:22:23.533Z,91
2022-11-11T01:32:23.591Z,91
2022-11-11T01:42:23.614Z,91
2022-11-11T01:52:23.509Z,91
2022-11-11T02:02:23.515Z,92
2022-11-11T02:12:23.487Z,92
2022-11-11T02:22:23.557Z,92
2022-11-11T02:32:23.483Z,92
2022-11-11T02:42:23.484Z,92
2022-11-11T02:52:23.430Z,92
2022-11-11T03:02:23.505Z,92
2022-11-11T03:12:23.641Z,92
2022-11-11T03:22:53.799Z,92
2022-11-11T03:32:23.365Z,92
2022-11-11T03:42:23.374Z,92
2022-11-11T03:52:23.358Z,92
2022-11-11T04:02:23.303Z,92
2022-11-11T04:12:23.358Z,92
2022-11-11T04:22:23.317Z,92
2022-11-11T04:32:23.321Z,92
2022-11-11T04:42:23.291Z,92
2022-11-11T04:52:23.415Z,92
2022-11-11T05:02:23.249Z,92
2022-11-11T05:12:23.264Z,92
2022-11-11T05:22:23.287Z,92
2022-11-11T05:32:23.224Z,92
2022-11-11T05:42:23.228Z,92
2022-11-11T05:52:23.225Z,92
2022-11-11T06:02:23.188Z,92
2022-11-11T06:12:23.187Z,92
2022-11-11T06:22:23.180Z,92
2022-11-11T06:32:23.147Z,92
2022-11-11T06:42:23.163Z,92
2022-11-11T06:52:23.141Z,92
2022-11-11T07:02:23.155Z,92
2022-11-11T07:12:23.144Z,92
2022-11-11T07:22:23.098Z,92
2022-11-11T07:32:23.077Z,93
2022-11-11T07:42:31.484Z,93
2022-11-11T07:52:23.043Z,93
2022-11-11T08:02:23.073Z,93
2022-11-11T08:12:23.050Z,93
2022-11-11T08:22:23.014Z,93
2022-11-11T08:32:22.999Z,93
2022-11-11T08:42:23.017Z,93
2022-11-11T08:52:22.968Z,94
2022-11-11T09:02:22.969Z,94
2022-11-11T09:12:23.009Z,94
2022-11-11T09:22:22.932Z,94
2022-11-11T09:32:22.929Z,94
2022-11-11T09:42:22.934Z,94
2022-11-11T09:52:22.889Z,95
2022-11-11T10:02:22.876Z,94
2022-11-11T10:12:22.885Z,93
2022-11-11T10:22:22.832Z,91
2022-11-11T10:32:22.837Z,90
2022-11-11T10:42:22.838Z,90
2022-11-11T10:52:22.781Z,89
2022-11-11T11:02:22.772Z,88
2022-11-11T11:12:22.767Z,88
2022-11-11T11:22:22.761Z,87
2022-11-11T11:32:22.703Z,88
2022-11-11T11:42:22.671Z,88
2022-11-11T11:52:22.707Z,88
2022-11-11T12:02:22.662Z,88
2022-11-11T12:12:22.636Z,88
2022-11-11T12:22:22.648Z,88
2022-11-11T12:32:22.588Z,87
2022-11-11T12:42:22.582Z,87
2022-11-11T12:52:22.575Z,86
2022-11-11T13:02:22.530Z,85
2022-11-11T13:12:22.503Z,85
2022-11-11T13:22:22.538Z,84
2022-11-11T13:32:22.473Z,83
2022-11-11T13:42:22.443Z,83
2022-11-11T13:52:26.777Z,81
2022-11-11T14:02:22.442Z,80
2022-11-11T14:12:22.520Z,79
2022-11-11T14:22:22.403Z,79
2022-11-11T14:32:22.353Z,79
2022-11-11T14:42:22.338Z,78
2022-11-11T14:52:22.346Z,78
2022-11-11T15:02:22.283Z,78
2022-11-11T15:12:22.270Z,78
2022-11-11T15:22:22.305Z,78
2022-11-11T15:32:22.233Z,79
2022-11-11T15:42:22.233Z,79
2022-11-11T15:52:22.251Z,79
2022-11-11T16:02:26.677Z,79
2022-11-11T16:12:22.200Z,80
2022-11-11T16:22:22.166Z,80
2022-11-11T16:32:22.121Z,80
2022-11-11T16:42:22.131Z,80
2022-11-11T16:52:22.112Z,81
2022-11-11T17:02:22.074Z,81
2022-11-11T17:12:22.095Z,81
2022-11-11T17:22:22.076Z,82
2022-11-11T17:32:22.034Z,82
2022-11-11T17:42:22.035Z,82
2022-11-11T17:52:22.014Z,82
2022-11-11T18:02:21.968Z,83
2022-11-11T18:12:21.983Z,83
2022-11-11T18:22:21.954Z,83
2022-11-11T18:32:21.906Z,83
2022-11-11T18:42:21.952Z,83
2022-11-11T18:52:21.920Z,84
2022-11-11T19:02:21.857Z,84
2022-11-11T19:12:21.898Z,84
2022-11-11T19:22:21.869Z,84
2022-11-11T19:32:21.828Z,84
2022-11-11T19:42:21.874Z,85
2022-11-11T19:52:21.802Z,85
2022-11-11T20:02:21.789Z,85
2022-11-11T20:12:21.806Z,85
2022-11-11T20:22:21.762Z,85
2022-11-11T20:32:21.744Z,85
2022-11-11T20:42:21.777Z,85
2022-11-11T20:52:21.729Z,86
2022-11-11T21:02:24.233Z,86
2022-11-11T21:12:21.743Z,86
2022-11-11T21:22:21.686Z,86
2022-11-11T21:32:21.682Z,86
2022-11-11T21:42:21.681Z,86
2022-11-11T21:52:21.644Z,86
2022-11-11T22:02:21.668Z,86
2022-11-11T22:12:21.657Z,86
2022-11-11T22:22:21.607Z,87
2022-11-11T22:32:21.579Z,87
2022-11-11T22:42:21.615Z,87
2022-11-11T22:52:21.548Z,87
2022-11-11T23:02:21.564Z,87
2022-11-11T23:12:21.572Z,87
2022-11-11T23:22:21.499Z,87
2022-11-11T23:32:21.514Z,87
2022-11-11T23:42:21.510Z,87
2022-11-11T23:52:21.483Z,87
